Time;durP1;ratioP1;P1;durP2;ratioP2;P2;SDS_P1;SDS_P2;PMS_P1;PMS_P2;Temp;Humidity;BMP_temperature;BMP_pressure;BME280_temperature;BME280_humidity;BME280_pressure;Samples;Min_cycle;Max_cycle;Signal;HPM_P1;HPM_P2
2024/04/06 00:00:18;;;;;;;;;6.00;5.00;;;;;;;;5102016;27;45286;-75
2024/04/06 00:02:45;;;;;;;;;6.00;6.00;;;;;;;;5101161;27;45312;-75
2024/04/06 00:05:12;;;;;;;;;6.00;5.33;;;;;;;;5101518;27;45254;-75
2024/04/06 00:07:38;;;;;;;;;5.67;5.67;;;;;;;;5101669;27;45286;-75
2024/04/06 00:10:04;;;;;;;;;5.33;5.33;;;;;;;;5101853;27;45285;-75
2024/04/06 00:12:29;;;;;;;;;3.67;3.33;;;;;;;;5101738;27;45227;-75
2024/04/06 00:14:54;;;;;;;;;5.00;5.00;;;;;;;;5101661;27;45238;-75
2024/04/06 00:17:21;;;;;;;;;6.00;5.00;;;;;;;;5101569;27;46317;-75
2024/04/06 00:19:46;;;;;;;;;5.00;5.00;;;;;;;;5101703;27;45247;-75
2024/04/06 00:22:11;;;;;;;;;4.00;4.00;;;;;;;;5101533;27;45515;-75
2024/04/06 00:24:36;;;;;;;;;8.33;7.00;;;;;;;;5100370;27;47315;-75
2024/04/06 00:27:02;;;;;;;;;7.00;6.00;;;;;;;;5090913;27;47570;-76
2024/04/06 00:29:27;;;;;;;;;8.00;6.00;;;;;;;;5079534;28;45476;-76
2024/04/06 00:31:52;;;;;;;;;1.67;1.67;;;;;;;;5081043;28;45316;-75
2024/04/06 00:34:17;;;;;;;;;5.33;5.00;;;;;;;;5080690;28;45231;-76
2024/04/06 00:36:42;;;;;;;;;7.00;7.00;;;;;;;;5080652;28;46217;-76
2024/04/06 00:39:07;;;;;;;;;5.33;4.67;;;;;;;;5080892;28;45348;-76
2024/04/06 00:41:33;;;;;;;;;7.67;6.00;;;;;;;;5080830;28;45309;-76
2024/04/06 00:43:58;;;;;;;;;6.00;6.00;;;;;;;;5080614;28;45310;-76
2024/04/06 00:46:23;;;;;;;;;5.00;5.00;;;;;;;;5080752;28;45345;-76
2024/04/06 00:48:48;;;;;;;;;6.67;6.67;;;;;;;;5080656;28;45393;-76
2024/04/06 00:51:13;;;;;;;;;3.67;3.67;;;;;;;;5080792;28;45361;-76
2024/04/06 00:53:39;;;;;;;;;6.67;6.67;;;;;;;;5080486;28;45682;-76
2024/04/06 00:56:04;;;;;;;;;5.00;4.33;;;;;;;;5080462;28;46211;-76
2024/04/06 00:58:29;;;;;;;;;4.33;4.33;;;;;;;;5098021;27;45383;-76
2024/04/06 01:00:55;;;;;;;;;6.00;6.00;;;;;;;;5099585;27;45420;-76
2024/04/06 01:03:20;;;;;;;;;5.33;5.33;;;;;;;;5100998;27;45444;-76
2024/04/06 01:05:46;;;;;;;;;4.33;4.33;;;;;;;;5100591;27;45914;-76
2024/04/06 01:08:11;;;;;;;;;6.67;6.00;;;;;;;;5100927;27;45263;-76
2024/04/06 01:10:37;;;;;;;;;8.00;8.00;;;;;;;;5099731;27;45255;-76
2024/04/06 01:13:02;;;;;;;;;6.00;5.00;;;;;;;;5100537;27;45211;-76
2024/04/06 01:15:32;;;;;;;;;5.33;5.33;;;;;;;;5100657;27;45254;-77
2024/04/06 01:17:57;;;;;;;;;7.00;5.00;;;;;;;;5100611;27;45531;-77
2024/04/06 01:20:22;;;;;;;;;2.33;2.33;;;;;;;;5100588;27;45429;-77
2024/04/06 01:22:47;;;;;;;;;5.00;5.00;;;;;;;;5099209;27;47163;-77
2024/04/06 01:25:13;;;;;;;;;4.00;3.67;;;;;;;;5085422;27;46192;-76
2024/04/06 01:27:38;;;;;;;;;5.00;5.00;;;;;;;;5080161;28;45308;-76
2024/04/06 01:30:04;;;;;;;;;6.00;6.00;;;;;;;;5078911;28;45578;-76
2024/04/06 01:32:30;;;;;;;;;5.00;4.00;;;;;;;;5079664;28;45334;-77
2024/04/06 01:34:55;;;;;;;;;5.67;5.67;;;;;;;;5079514;28;45293;-77
2024/04/06 01:37:20;;;;;;;;;5.00;5.00;;;;;;;;5078445;28;45462;-76
2024/04/06 01:39:45;;;;;;;;;5.67;5.33;;;;;;;;5079972;28;45341;-76
2024/04/06 01:42:10;;;;;;;;;5.33;5.33;;;;;;;;5080030;28;45465;-76
2024/04/06 01:44:36;;;;;;;;;6.00;6.00;;;;;;;;5079819;28;45519;-77
2024/04/06 01:47:01;;;;;;;;;8.00;6.00;;;;;;;;5079879;28;45275;-76
2024/04/06 01:49:26;;;;;;;;;5.33;5.00;;;;;;;;5079978;28;45463;-76
2024/04/06 01:51:52;;;;;;;;;3.67;3.67;;;;;;;;5078983;28;45623;-76
2024/04/06 01:54:17;;;;;;;;;6.67;5.00;;;;;;;;5077315;28;48077;-76
2024/04/06 01:56:42;;;;;;;;;5.00;5.00;;;;;;;;5081685;27;45156;-77
2024/04/06 01:59:07;;;;;;;;;5.67;5.33;;;;;;;;5100335;27;45408;-76
2024/04/06 02:01:32;;;;;;;;;5.00;5.00;;;;;;;;5099337;27;45388;-76
2024/04/06 02:03:58;;;;;;;;;5.00;5.00;;;;;;;;5099370;27;45323;-76
2024/04/06 02:06:23;;;;;;;;;4.00;4.00;;;;;;;;5098703;27;45722;-76
2024/04/06 02:08:48;;;;;;;;;5.33;5.00;;;;;;;;5100287;27;45325;-76
2024/04/06 02:11:13;;;;;;;;;8.00;8.00;;;;;;;;5100043;27;45576;-76
2024/04/06 02:13:38;;;;;;;;;8.00;6.67;;;;;;;;5099998;27;45374;-76
2024/04/06 02:16:04;;;;;;;;;5.33;5.33;;;;;;;;5099925;27;45257;-76
2024/04/06 02:18:29;;;;;;;;;5.00;5.00;;;;;;;;5099967;27;45830;-77
2024/04/06 02:20:54;;;;;;;;;6.00;6.00;;;;;;;;5098518;27;45559;-76
2024/04/06 02:23:19;;;;;;;;;4.00;4.00;;;;;;;;5099890;27;45247;-76
2024/04/06 02:25:45;;;;;;;;;8.67;5.00;;;;;;;;5101187;27;45333;-76
2024/04/06 02:28:10;;;;;;;;;8.00;7.00;;;;;;;;5103538;27;45344;-77
2024/04/06 02:30:37;;;;;;;;;4.00;4.00;;;;;;;;5103320;27;45263;-76
2024/04/06 02:33:03;;;;;;;;;6.00;6.00;;;;;;;;5103176;27;45363;-76
2024/04/06 02:35:28;;;;;;;;;6.00;5.00;;;;;;;;5102703;27;45330;-77
2024/04/06 02:37:53;;;;;;;;;5.00;4.67;;;;;;;;5103373;27;45264;-76
2024/04/06 02:40:19;;;;;;;;;2.00;2.00;;;;;;;;5103165;27;45281;-76
2024/04/06 02:42:44;;;;;;;;;0.00;0.00;;;;;;;;5103243;27;46237;-76
2024/04/06 02:45:09;;;;;;;;;7.33;5.67;;;;;;;;5102933;27;45222;-76
2024/04/06 02:47:34;;;;;;;;;5.00;3.67;;;;;;;;5103378;27;45231;-77
2024/04/06 02:50:00;;;;;;;;;8.33;5.67;;;;;;;;5102827;27;45321;-76
2024/04/06 02:52:25;;;;;;;;;5.67;5.67;;;;;;;;5102853;27;45302;-78
2024/04/06 02:54:50;;;;;;;;;4.33;4.00;;;;;;;;5102682;27;45348;-76
2024/04/06 02:57:16;;;;;;;;;4.00;4.00;;;;;;;;5095911;27;45314;-76
2024/04/06 02:59:41;;;;;;;;;4.00;4.00;;;;;;;;5082392;28;45507;-76
2024/04/06 03:02:08;;;;;;;;;5.00;4.00;;;;;;;;5082413;28;45432;-76
2024/04/06 03:04:33;;;;;;;;;5.67;4.67;;;;;;;;5082212;28;45280;-76
2024/04/06 03:06:58;;;;;;;;;3.00;3.00;;;;;;;;5082304;28;45296;-76
2024/04/06 03:09:23;;;;;;;;;5.33;4.33;;;;;;;;5082275;28;45347;-76
2024/04/06 03:11:48;;;;;;;;;4.00;4.00;;;;;;;;5082156;28;46090;-77
2024/04/06 03:14:14;;;;;;;;;4.33;3.00;;;;;;;;5080892;28;45821;-76
2024/04/06 03:16:39;;;;;;;;;4.00;4.00;;;;;;;;5082240;28;45307;-77
2024/04/06 03:19:04;;;;;;;;;3.00;3.00;;;;;;;;5082116;28;45318;-75
2024/04/06 03:21:30;;;;;;;;;4.00;4.00;;;;;;;;5081785;28;45807;-76
2024/04/06 03:23:55;;;;;;;;;3.33;3.00;;;;;;;;5082127;28;45472;-77
2024/04/06 03:26:20;;;;;;;;;3.00;3.00;;;;;;;;5082187;28;45310;-77
2024/04/06 03:28:45;;;;;;;;;6.00;4.00;;;;;;;;5081832;28;45213;-77
2024/04/06 03:31:10;;;;;;;;;3.33;2.67;;;;;;;;5080307;28;48672;-76
2024/04/06 03:33:35;;;;;;;;;2.00;2.00;;;;;;;;5081900;28;45365;-76
2024/04/06 03:36:01;;;;;;;;;3.33;3.33;;;;;;;;5081512;28;45306;-77
2024/04/06 03:38:26;;;;;;;;;2.33;2.33;;;;;;;;5081785;28;45334;-77
2024/04/06 03:40:51;;;;;;;;;2.00;1.00;;;;;;;;5081671;28;45366;-77
2024/04/06 03:43:17;;;;;;;;;2.33;1.00;;;;;;;;5081550;28;45512;-77
2024/04/06 03:45:43;;;;;;;;;3.00;3.00;;;;;;;;5080985;28;45364;-76
2024/04/06 03:48:09;;;;;;;;;3.00;3.00;;;;;;;;5080354;28;46064;-76
2024/04/06 03:50:34;;;;;;;;;2.33;2.00;;;;;;;;5081285;28;46396;-77
2024/04/06 03:53:00;;;;;;;;;2.00;2.00;;;;;;;;5081302;28;45416;-77
2024/04/06 03:55:25;;;;;;;;;5.00;2.00;;;;;;;;5081725;28;45556;-76
2024/04/06 03:57:50;;;;;;;;;2.00;2.00;;;;;;;;5093243;27;45463;-76
2024/04/06 04:00:15;;;;;;;;;2.00;2.00;;;;;;;;5101942;27;46499;-76
2024/04/06 04:02:41;;;;;;;;;1.67;1.67;;;;;;;;5100768;27;45220;-76
2024/04/06 04:05:08;;;;;;;;;1.67;1.67;;;;;;;;5101680;27;45235;-76
2024/04/06 04:07:35;;;;;;;;;3.00;3.00;;;;;;;;5101833;27;45397;-77
2024/04/06 04:10:01;;;;;;;;;2.00;2.00;;;;;;;;5100334;27;48483;-77
2024/04/06 04:12:27;;;;;;;;;1.00;1.00;;;;;;;;5101784;27;45350;-76
2024/04/06 04:14:52;;;;;;;;;1.33;1.33;;;;;;;;5101809;27;45400;-77
2024/04/06 04:17:18;;;;;;;;;1.00;1.00;;;;;;;;5101441;27;45424;-77
2024/04/06 04:19:43;;;;;;;;;2.33;2.33;;;;;;;;5100104;27;47975;-76
2024/04/06 04:22:08;;;;;;;;;3.00;1.33;;;;;;;;5101579;27;45361;-77
2024/04/06 04:24:34;;;;;;;;;2.00;2.00;;;;;;;;5101552;27;45372;-76
2024/04/06 04:26:59;;;;;;;;;2.00;1.67;;;;;;;;5101562;27;45250;-77
2024/04/06 04:29:24;;;;;;;;;2.33;2.33;;;;;;;;5101449;27;45539;-76
2024/04/06 04:31:49;;;;;;;;;3.00;2.67;;;;;;;;5101368;27;45289;-76
2024/04/06 04:34:14;;;;;;;;;2.00;2.00;;;;;;;;5101484;27;45545;-76
2024/04/06 04:36:39;;;;;;;;;2.33;1.00;;;;;;;;5101156;27;45388;-76
2024/04/06 04:39:05;;;;;;;;;0.75;0.75;;;;;;;;5101362;27;45433;-77
2024/04/06 04:41:30;;;;;;;;;2.00;2.00;;;;;;;;5099777;27;45303;-76
2024/04/06 04:43:56;;;;;;;;;1.67;1.67;;;;;;;;5101534;27;45420;-76
2024/04/06 04:46:21;;;;;;;;;2.33;2.33;;;;;;;;5101246;27;45325;-77
2024/04/06 04:48:52;;;;;;;;;0.33;0.33;;;;;;;;5100597;27;46223;-76
2024/04/06 04:51:19;;;;;;;;;2.00;2.00;;;;;;;;5100837;27;45332;-76
2024/04/06 04:53:44;;;;;;;;;2.00;2.00;;;;;;;;5101078;27;45321;-77
2024/04/06 04:56:09;;;;;;;;;2.00;2.00;;;;;;;;5101011;27;45232;-77
2024/04/06 04:58:34;;;;;;;;;1.00;1.00;;;;;;;;5081189;27;47188;-76
2024/04/06 05:00:59;;;;;;;;;1.00;1.00;;;;;;;;5080717;28;45255;-76
2024/04/06 05:03:24;;;;;;;;;2.00;1.00;;;;;;;;5080723;28;45372;-77
2024/04/06 05:05:49;;;;;;;;;1.50;0.50;;;;;;;;5080333;28;45975;-76
2024/04/06 05:08:15;;;;;;;;;2.00;1.00;;;;;;;;5080565;28;45446;-76
2024/04/06 05:10:40;;;;;;;;;0.67;0.67;;;;;;;;5080573;28;45272;-76
2024/04/06 05:13:05;;;;;;;;;1.33;1.33;;;;;;;;5080420;28;45267;-77
2024/04/06 05:15:30;;;;;;;;;1.00;0.00;;;;;;;;5080299;28;45322;-77
2024/04/06 05:17:55;;;;;;;;;1.00;1.00;;;;;;;;5066870;28;45319;-76
2024/04/06 05:20:21;;;;;;;;;1.00;1.00;;;;;;;;5058206;28;45344;-76
2024/04/06 05:22:46;;;;;;;;;2.00;1.00;;;;;;;;5059419;28;45454;-77
2024/04/06 05:25:11;;;;;;;;;0.00;0.00;;;;;;;;5057901;28;47093;-76
2024/04/06 05:27:36;;;;;;;;;0.33;0.33;;;;;;;;5059741;28;45323;-77
2024/04/06 05:30:02;;;;;;;;;0.00;0.00;;;;;;;;5059961;28;45441;-76
2024/04/06 05:32:27;;;;;;;;;1.00;1.00;;;;;;;;5059798;28;45399;-77
2024/04/06 05:34:53;;;;;;;;;0.50;0.50;;;;;;;;5057967;28;47111;-76
2024/04/06 05:37:18;;;;;;;;;0.67;0.67;;;;;;;;5059596;28;45428;-77
2024/04/06 05:39:43;;;;;;;;;1.00;1.00;;;;;;;;5059734;28;45301;-76
2024/04/06 05:42:08;;;;;;;;;2.00;1.00;;;;;;;;5059930;28;45307;-76
2024/04/06 05:44:34;;;;;;;;;0.00;0.00;;;;;;;;5058123;28;45890;-76
2024/04/06 05:46:59;;;;;;;;;0.75;0.75;;;;;;;;5058332;28;48272;-76
2024/04/06 05:49:24;;;;;;;;;0.00;0.00;;;;;;;;5059533;28;45403;-77
2024/04/06 05:51:49;;;;;;;;;1.00;1.00;;;;;;;;5059611;28;45418;-76
2024/04/06 05:54:14;;;;;;;;;0.00;0.00;;;;;;;;5059477;28;45260;-77
2024/04/06 05:56:41;;;;;;;;;3.25;1.00;;;;;;;;5074783;27;45343;-76
2024/04/06 05:59:07;;;;;;;;;1.00;1.00;;;;;;;;5099242;27;45442;-77
2024/04/06 06:01:32;;;;;;;;;1.00;1.00;;;;;;;;5101181;27;45357;-77
2024/04/06 06:03:57;;;;;;;;;0.00;0.00;;;;;;;;5103344;27;45280;-78
2024/04/06 06:06:23;;;;;;;;;0.00;0.00;;;;;;;;5102017;27;47107;-77
2024/04/06 06:08:48;;;;;;;;;0.00;0.00;;;;;;;;5102196;27;45343;-78
2024/04/06 06:11:13;;;;;;;;;1.00;1.00;;;;;;;;5103735;27;45337;-78
2024/04/06 06:13:38;;;;;;;;;0.00;0.00;;;;;;;;5102147;27;46314;-78
2024/04/06 06:16:03;;;;;;;;;1.00;0.00;;;;;;;;5103339;27;46240;-78
2024/04/06 06:18:29;;;;;;;;;0.00;0.00;;;;;;;;5102056;27;46165;-77
2024/04/06 06:20:54;;;;;;;;;1.00;1.00;;;;;;;;5102058;27;45369;-78
2024/04/06 06:23:19;;;;;;;;;0.00;0.00;;;;;;;;5076217;27;45328;-80
2024/04/06 06:25:44;;;;;;;;;0.00;0.00;;;;;;;;5070215;28;45400;-79
2024/04/06 06:28:09;;;;;;;;;0.75;0.00;;;;;;;;5060997;28;45399;-78
2024/04/06 06:30:35;;;;;;;;;0.00;0.00;;;;;;;;5062634;28;45575;-77
2024/04/06 06:33:00;;;;;;;;;0.67;0.67;;;;;;;;5062324;28;45312;-78
2024/04/06 06:35:25;;;;;;;;;1.67;1.00;;;;;;;;5061986;28;45387;-75
2024/04/06 06:37:50;;;;;;;;;0.50;0.50;;;;;;;;5061989;28;45402;-75
2024/04/06 06:40:16;;;;;;;;;1.00;1.00;;;;;;;;5061304;28;45793;-76
2024/04/06 06:42:41;;;;;;;;;0.00;0.00;;;;;;;;5071322;28;45648;-77
2024/04/06 06:45:06;;;;;;;;;2.00;0.00;;;;;;;;5072253;27;45473;-76
2024/04/06 06:47:34;;;;;;;;;0.00;0.00;;;;;;;;5087173;27;45638;-76
2024/04/06 06:50:00;;;;;;;;;0.25;0.25;;;;;;;;5082522;28;45268;-78
2024/04/06 06:52:25;;;;;;;;;0.00;0.00;;;;;;;;5082442;28;45970;-77
2024/04/06 06:54:51;;;;;;;;;0.00;0.00;;;;;;;;5081206;28;45331;-77
2024/04/06 06:57:16;;;;;;;;;0.00;0.00;;;;;;;;5088358;27;45368;-78
2024/04/06 06:59:41;;;;;;;;;0.00;0.00;;;;;;;;5101814;27;45355;-77
2024/04/06 07:02:06;;;;;;;;;0.00;0.00;;;;;;;;5100283;27;47291;-77
2024/04/06 07:04:32;;;;;;;;;0.00;0.00;;;;;;;;5100117;27;47280;-78
2024/04/06 07:06:58;;;;;;;;;0.25;0.00;;;;;;;;5100190;27;45259;-77
2024/04/06 07:09:23;;;;;;;;;0.00;0.00;;;;;;;;5080953;28;45352;-77
2024/04/06 07:11:48;;;;;;;;;0.00;0.00;;;;;;;;5078876;28;45870;-75
2024/04/06 07:14:13;;;;;;;;;0.00;0.00;;;;;;;;5079976;28;45446;-76
2024/04/06 07:16:39;;;;;;;;;0.00;0.00;;;;;;;;5069076;28;45621;-77
2024/04/06 07:19:06;;;;;;;;;0.25;0.25;;;;;;;;5075716;28;45413;-76
2024/04/06 07:21:31;;;;;;;;;0.00;0.00;;;;;;;;5080088;28;45349;-76
2024/04/06 07:23:56;;;;;;;;;0.75;0.00;;;;;;;;5080886;28;45488;-76
2024/04/06 07:26:23;;;;;;;;;0.75;0.75;;;;;;;;5080830;28;45468;-76
2024/04/06 07:28:48;;;;;;;;;2.00;0.00;;;;;;;;5080744;28;45353;-77
2024/04/06 07:31:13;;;;;;;;;0.00;0.00;;;;;;;;5080569;28;45499;-75
2024/04/06 07:33:39;;;;;;;;;0.00;0.00;;;;;;;;5078770;28;45310;-75
2024/04/06 07:36:04;;;;;;;;;0.00;0.00;;;;;;;;5069571;28;45391;-76
2024/04/06 07:38:29;;;;;;;;;0.00;0.00;;;;;;;;5068852;28;45549;-77
2024/04/06 07:40:57;;;;;;;;;0.00;0.00;;;;;;;;5060849;28;45952;-78
2024/04/06 07:43:22;;;;;;;;;0.00;0.00;;;;;;;;5066279;28;45485;-77
2024/04/06 07:45:47;;;;;;;;;0.00;0.00;;;;;;;;5057985;28;45833;-78
2024/04/06 07:48:13;;;;;;;;;2.00;1.00;;;;;;;;5058228;28;45313;-78
2024/04/06 07:50:38;;;;;;;;;0.50;0.50;;;;;;;;5057799;28;47354;-78
2024/04/06 07:53:03;;;;;;;;;0.00;0.00;;;;;;;;5017607;28;1142161;-75
2024/04/06 07:55:28;;;;;;;;;2.50;2.50;;;;;;;;5059995;28;45409;-76
2024/04/06 07:57:53;;;;;;;;;0.00;0.00;;;;;;;;5084448;27;45365;-76
2024/04/06 08:00:19;;;;;;;;;0.00;0.00;;;;;;;;5080412;28;45358;-76
2024/04/06 08:02:44;;;;;;;;;0.00;0.00;;;;;;;;5080836;28;45855;-76
2024/04/06 08:05:09;;;;;;;;;0.00;0.00;;;;;;;;5071898;28;45573;-77
2024/04/06 08:07:35;;;;;;;;;0.00;0.00;;;;;;;;5060142;28;45471;-79
2024/04/06 08:10:01;;;;;;;;;1.00;0.50;;;;;;;;5070503;28;45552;-78
2024/04/06 08:12:26;;;;;;;;;0.00;0.00;;;;;;;;5076900;27;47311;-77
2024/04/06 08:14:52;;;;;;;;;0.00;0.00;;;;;;;;5075501;28;45315;-77
2024/04/06 08:17:17;;;;;;;;;0.00;0.00;;;;;;;;5068503;28;45433;-76
2024/04/06 08:19:42;;;;;;;;;0.00;0.00;;;;;;;;5069892;28;45286;-76
2024/04/06 08:22:07;;;;;;;;;0.00;0.00;;;;;;;;5069942;28;45462;-77
2024/04/06 08:24:32;;;;;;;;;0.00;0.00;;;;;;;;5062698;28;45419;-77
2024/04/06 08:26:58;;;;;;;;;0.00;0.00;;;;;;;;5060163;28;45525;-77
2024/04/06 08:29:23;;;;;;;;;0.00;0.00;;;;;;;;5058833;28;46257;-77
2024/04/06 08:31:48;;;;;;;;;0.00;0.00;;;;;;;;5060062;28;47248;-76
2024/04/06 08:34:13;;;;;;;;;0.00;0.00;;;;;;;;5072196;28;45323;-77
2024/04/06 08:36:38;;;;;;;;;0.75;0.75;;;;;;;;5079889;28;45388;-77
2024/04/06 08:39:04;;;;;;;;;0.00;0.00;;;;;;;;5081591;28;45453;-78
2024/04/06 08:41:29;;;;;;;;;1.25;1.00;;;;;;;;5081362;28;45925;-77
2024/04/06 08:43:55;;;;;;;;;0.00;0.00;;;;;;;;5082153;28;45357;-76
2024/04/06 08:46:23;;;;;;;;;0.00;0.00;;;;;;;;5081022;28;45307;-77
2024/04/06 08:48:49;;;;;;;;;0.50;0.00;;;;;;;;5080497;28;45373;-77
2024/04/06 08:51:16;;;;;;;;;0.75;0.25;;;;;;;;5079330;28;48604;-77
2024/04/06 08:53:41;;;;;;;;;1.00;1.00;;;;;;;;5080302;28;45577;-77
2024/04/06 08:56:08;;;;;;;;;0.00;0.00;;;;;;;;5081519;28;45603;-76
2024/04/06 08:58:33;;;;;;;;;0.25;0.00;;;;;;;;5099395;27;45512;-76
2024/04/06 09:01:00;;;;;;;;;0.00;0.00;;;;;;;;5102192;27;46260;-76
2024/04/06 09:03:25;;;;;;;;;0.25;0.00;;;;;;;;5102770;27;45370;-76
2024/04/06 09:05:51;;;;;;;;;1.00;1.00;;;;;;;;5087038;27;45240;-76
2024/04/06 09:08:16;;;;;;;;;0.00;0.00;;;;;;;;5081834;28;45278;-76
2024/04/06 09:10:41;;;;;;;;;0.00;0.00;;;;;;;;5081342;28;46334;-77
2024/04/06 09:13:07;;;;;;;;;1.00;0.00;;;;;;;;5081061;28;45447;-76
2024/04/06 09:15:32;;;;;;;;;0.00;0.00;;;;;;;;5080910;28;45471;-76
2024/04/06 09:17:57;;;;;;;;;0.00;0.00;;;;;;;;5082053;28;45309;-77
2024/04/06 09:20:22;;;;;;;;;0.00;0.00;;;;;;;;5080002;28;47118;-77
2024/04/06 09:22:48;;;;;;;;;0.00;0.00;;;;;;;;5081777;28;45364;-76
2024/04/06 09:25:13;;;;;;;;;1.00;1.00;;;;;;;;5081191;28;45288;-76
2024/04/06 09:27:44;;;;;;;;;7.00;7.00;;;;;;;;5073762;28;46941;-75
2024/04/06 09:30:11;;;;;;;;;3.50;3.50;;;;;;;;5063649;28;45291;-75
2024/04/06 09:32:37;;;;;;;;;1.00;0.00;;;;;;;;5078354;28;45289;-75
2024/04/06 09:35:02;;;;;;;;;0.00;0.00;;;;;;;;5076658;28;45708;-75
2024/04/06 09:37:32;;;;;;;;;0.00;0.00;;;;;;;;5078550;28;46306;-74
2024/04/06 09:39:58;;;;;;;;;0.00;0.00;;;;;;;;5079977;28;45275;-75
2024/04/06 09:42:24;;;;;;;;;0.50;0.50;;;;;;;;5078581;28;45372;-75
2024/04/06 09:44:50;;;;;;;;;0.00;0.00;;;;;;;;5080000;28;45354;-75
2024/04/06 09:47:16;;;;;;;;;0.25;0.25;;;;;;;;5079987;28;45244;-74
2024/04/06 09:49:42;;;;;;;;;0.75;0.00;;;;;;;;5078689;28;47401;-74
2024/04/06 09:52:08;;;;;;;;;0.00;0.00;;;;;;;;5079535;28;45222;-75
2024/04/06 09:54:33;;;;;;;;;0.00;0.00;;;;;;;;5079679;28;45488;-75
2024/04/06 09:56:59;;;;;;;;;0.25;0.00;;;;;;;;5084362;27;45412;-75
2024/04/06 09:59:27;;;;;;;;;1.25;0.00;;;;;;;;5100233;27;45481;-75
2024/04/06 10:01:53;;;;;;;;;0.00;0.00;;;;;;;;5100593;27;45352;-77
2024/04/06 10:04:32;;;;;;;;;1.00;1.00;;;;;;;;5102981;27;45347;-78
2024/04/06 10:07:00;;;;;;;;;0.00;0.00;;;;;;;;5101215;27;46296;-76
2024/04/06 10:09:30;;;;;;;;;0.00;0.00;;;;;;;;5102934;27;47432;-78
2024/04/06 10:11:59;;;;;;;;;0.00;0.00;;;;;;;;5100124;27;45263;-77
2024/04/06 10:14:26;;;;;;;;;0.00;0.00;;;;;;;;5100273;27;45325;-77
2024/04/06 10:16:51;;;;;;;;;0.00;0.00;;;;;;;;5099657;27;46611;-78
2024/04/06 10:19:18;;;;;;;;;0.00;0.00;;;;;;;;5100798;27;45335;-78
2024/04/06 10:21:46;;;;;;;;;0.20;0.20;;;;;;;;5098507;27;45333;-78
2024/04/06 10:24:12;;;;;;;;;0.00;0.00;;;;;;;;5099142;27;45232;-78
2024/04/06 10:26:49;;;;;;;;;0.00;0.00;;;;;;;;5093501;27;47129;-77
2024/04/06 10:29:14;;;;;;;;;0.75;0.75;;;;;;;;5077374;28;45814;-76
2024/04/06 10:31:40;;;;;;;;;0.00;0.00;;;;;;;;5079881;28;45587;-77
2024/04/06 10:34:05;;;;;;;;;0.00;0.00;;;;;;;;5077450;28;45572;-75
2024/04/06 10:36:30;;;;;;;;;1.00;1.00;;;;;;;;5077491;28;45888;-75
2024/04/06 10:38:56;;;;;;;;;0.00;0.00;;;;;;;;5077604;28;48208;-75
2024/04/06 10:41:21;;;;;;;;;0.00;0.00;;;;;;;;5080295;28;45384;-77
2024/04/06 10:43:49;;;;;;;;;0.00;0.00;;;;;;;;5080286;28;45400;-75
2024/04/06 10:46:14;;;;;;;;;1.25;1.00;;;;;;;;5086796;28;45287;-76
2024/04/06 10:48:39;;;;;;;;;0.00;0.00;;;;;;;;5082402;28;45453;-78
2024/04/06 10:51:05;;;;;;;;;0.00;0.00;;;;;;;;5081787;28;45413;-78
2024/04/06 10:53:30;;;;;;;;;1.25;1.25;;;;;;;;5082117;28;45275;-78
2024/04/06 10:55:56;;;;;;;;;3.00;1.00;;;;;;;;5072004;28;45578;-76
2024/04/06 10:58:21;;;;;;;;;2.75;1.00;;;;;;;;5071204;27;46299;-76
2024/04/06 11:00:46;;;;;;;;;1.00;1.00;;;;;;;;5067822;28;45360;-77
2024/04/06 11:03:12;;;;;;;;;0.75;0.75;;;;;;;;5067031;27;46008;-78
2024/04/06 11:05:38;;;;;;;;;1.25;1.25;;;;;;;;5067569;28;45598;-78
2024/04/06 11:08:03;;;;;;;;;3.50;1.75;;;;;;;;5076195;28;45469;-77
2024/04/06 11:10:29;;;;;;;;;1.75;1.00;;;;;;;;5080146;28;45481;-75
2024/04/06 11:12:56;;;;;;;;;2.00;2.00;;;;;;;;5079139;28;45477;-76
2024/04/06 11:15:22;;;;;;;;;1.50;1.50;;;;;;;;5061486;28;45406;-77
2024/04/06 11:17:48;;;;;;;;;1.00;1.00;;;;;;;;5058929;28;46241;-77
2024/04/06 11:20:13;;;;;;;;;0.80;0.80;;;;;;;;5074200;28;45202;-77
2024/04/06 11:22:39;;;;;;;;;1.75;1.75;;;;;;;;5062472;28;45524;-76
2024/04/06 11:25:04;;;;;;;;;2.00;2.00;;;;;;;;5060923;28;45652;-76
2024/04/06 11:27:29;;;;;;;;;1.00;1.00;;;;;;;;5070902;28;45726;-77
2024/04/06 11:29:58;;;;;;;;;1.00;0.00;;;;;;;;5079641;28;45295;-77
2024/04/06 11:32:23;;;;;;;;;0.00;0.00;;;;;;;;5080424;28;45413;-78
2024/04/06 11:34:50;;;;;;;;;0.00;0.00;;;;;;;;5081035;28;45432;-77
2024/04/06 11:37:15;;;;;;;;;0.00;0.00;;;;;;;;5081425;27;47111;-77
2024/04/06 11:39:40;;;;;;;;;2.00;1.00;;;;;;;;5081649;28;46318;-78
2024/04/06 11:42:06;;;;;;;;;0.25;0.00;;;;;;;;5083036;27;45379;-79
2024/04/06 11:44:31;;;;;;;;;0.00;0.00;;;;;;;;5078398;28;45500;-79
2024/04/06 11:46:56;;;;;;;;;0.00;0.00;;;;;;;;5080459;27;46303;-77
2024/04/06 11:49:22;;;;;;;;;1.00;1.00;;;;;;;;5081159;28;45409;-78
2024/04/06 11:51:47;;;;;;;;;1.00;0.75;;;;;;;;5083097;27;45294;-79
2024/04/06 11:54:13;;;;;;;;;1.00;1.00;;;;;;;;5080085;28;45790;-78
2024/04/06 11:56:38;;;;;;;;;0.00;0.00;;;;;;;;5083558;27;45328;-78
2024/04/06 11:59:03;;;;;;;;;0.00;0.00;;;;;;;;5100873;27;45273;-77
2024/04/06 12:01:28;;;;;;;;;1.00;0.00;;;;;;;;5089185;27;45476;-76
2024/04/06 12:03:53;;;;;;;;;0.00;0.00;;;;;;;;5080350;28;45267;-79
2024/04/06 12:06:23;;;;;;;;;0.00;0.00;;;;;;;;5081487;27;45721;-78
2024/04/06 12:08:49;;;;;;;;;1.75;1.25;;;;;;;;5083225;28;45250;-79
2024/04/06 12:11:14;;;;;;;;;2.00;0.00;;;;;;;;5081604;28;45268;-76
2024/04/06 12:13:39;;;;;;;;;2.00;2.00;;;;;;;;5082930;28;45317;-77
2024/04/06 12:16:04;;;;;;;;;3.00;1.75;;;;;;;;5082626;28;48258;-77
2024/04/06 12:18:30;;;;;;;;;1.00;1.00;;;;;;;;5084077;28;45361;-78
2024/04/06 12:20:55;;;;;;;;;1.00;1.00;;;;;;;;5083545;28;45260;-77
2024/04/06 12:23:20;;;;;;;;;0.25;0.25;;;;;;;;5083839;28;45286;-77
2024/04/06 12:25:45;;;;;;;;;1.00;1.00;;;;;;;;5082492;28;45561;-77
2024/04/06 12:28:10;;;;;;;;;2.50;2.50;;;;;;;;5080471;28;45453;-78
2024/04/06 12:30:35;;;;;;;;;3.00;1.00;;;;;;;;5070941;28;45406;-77
2024/04/06 12:33:01;;;;;;;;;2.00;2.00;;;;;;;;5075898;28;45290;-77
2024/04/06 12:35:26;;;;;;;;;2.50;2.50;;;;;;;;5080399;28;46677;-75
2024/04/06 12:37:51;;;;;;;;;3.50;1.25;;;;;;;;5076173;28;45489;-75
2024/04/06 12:40:17;;;;;;;;;1.00;1.00;;;;;;;;5075918;28;45414;-75
2024/04/06 12:42:42;;;;;;;;;1.75;1.75;;;;;;;;5077212;28;45631;-75
2024/04/06 12:45:08;;;;;;;;;2.25;2.25;;;;;;;;5075646;28;48536;-77
2024/04/06 12:47:33;;;;;;;;;1.50;1.50;;;;;;;;5075398;28;45477;-77
2024/04/06 12:49:58;;;;;;;;;4.00;4.00;;;;;;;;5066857;28;45374;-79
2024/04/06 12:52:24;;;;;;;;;3.75;2.00;;;;;;;;5076781;28;45531;-78
2024/04/06 12:54:49;;;;;;;;;1.00;1.00;;;;;;;;5078289;28;47022;-79
2024/04/06 12:59:58;;;;;;;;;1.00;1.00;;;;;;;;5085749;27;45383;-80
2024/04/06 13:02:23;;;;;;;;;3.00;2.00;;;;;;;;5077682;28;47337;-82
2024/04/06 13:04:49;;;;;;;;;2.50;2.00;;;;;;;;5079012;27;47332;-79
2024/04/06 13:07:15;;;;;;;;;1.00;1.00;;;;;;;;5078771;28;45663;-79
2024/04/06 13:09:40;;;;;;;;;2.25;2.25;;;;;;;;5076942;27;45485;-79
2024/04/06 13:12:05;;;;;;;;;1.00;0.00;;;;;;;;5075994;27;46317;-79
2024/04/06 13:14:30;;;;;;;;;2.00;0.00;;;;;;;;5075868;27;45669;-78
2024/04/06 13:16:55;;;;;;;;;1.75;1.75;;;;;;;;5079681;28;45133;-78
2024/04/06 13:19:21;;;;;;;;;2.00;1.25;;;;;;;;5078585;27;45353;-78
2024/04/06 13:21:46;;;;;;;;;2.75;2.00;;;;;;;;5080275;28;45243;-78
2024/04/06 13:24:11;;;;;;;;;1.50;1.50;;;;;;;;5080317;27;45562;-78
2024/04/06 13:26:37;;;;;;;;;0.25;0.25;;;;;;;;5068345;28;45243;-78
2024/04/06 13:29:04;;;;;;;;;2.75;2.25;;;;;;;;5064155;27;45441;-78
2024/04/06 13:31:29;;;;;;;;;2.00;2.00;;;;;;;;5083054;28;45542;-77
2024/04/06 13:33:54;;;;;;;;;1.75;1.75;;;;;;;;5083581;27;45384;-78
2024/04/06 13:36:19;;;;;;;;;2.00;2.00;;;;;;;;5079701;28;45375;-78
2024/04/06 13:38:44;;;;;;;;;1.00;0.00;;;;;;;;5080085;27;45430;-78
2024/04/06 13:41:09;;;;;;;;;0.00;0.00;;;;;;;;5071109;28;45658;-80
2024/04/06 13:43:35;;;;;;;;;1.25;1.25;;;;;;;;5065151;28;46052;-78
2024/04/06 13:46:00;;;;;;;;;2.00;2.00;;;;;;;;5073232;27;45315;-80
2024/04/06 13:48:25;;;;;;;;;1.00;1.00;;;;;;;;5079494;28;45482;-78
2024/04/06 13:50:56;;;;;;;;;2.75;1.00;;;;;;;;5079927;27;45396;-78
2024/04/06 13:53:21;;;;;;;;;1.50;1.50;;;;;;;;5082522;28;45395;-78
2024/04/06 13:55:47;;;;;;;;;1.75;1.75;;;;;;;;5078245;27;45407;-78
2024/04/06 13:58:12;;;;;;;;;0.75;0.75;;;;;;;;5080195;27;45421;-80
2024/04/06 14:00:40;;;;;;;;;1.75;1.75;;;;;;;;5072225;27;45608;-79
2024/04/06 14:03:06;;;;;;;;;2.50;2.25;;;;;;;;5069010;28;47501;-80
2024/04/06 14:05:31;;;;;;;;;0.50;0.50;;;;;;;;5069763;28;45403;-78
2024/04/06 14:07:57;;;;;;;;;0.00;0.00;;;;;;;;5071686;28;45275;-78
2024/04/06 14:10:22;;;;;;;;;2.25;2.00;;;;;;;;5079435;28;45404;-79
2024/04/06 14:12:47;;;;;;;;;0.25;0.25;;;;;;;;5071093;28;46991;-79
2024/04/06 14:15:13;;;;;;;;;2.50;1.50;;;;;;;;5082207;28;45386;-79
2024/04/06 14:17:38;;;;;;;;;1.00;1.00;;;;;;;;5077500;28;45363;-79
2024/04/06 14:20:08;;;;;;;;;1.00;1.00;;;;;;;;5061243;28;45287;-78
2024/04/06 14:22:33;;;;;;;;;1.75;1.75;;;;;;;;5064865;28;45616;-79
2024/04/06 14:24:58;;;;;;;;;1.75;1.50;;;;;;;;5076724;28;45509;-79
2024/04/06 14:27:24;;;;;;;;;1.00;1.00;;;;;;;;5075931;28;45337;-79
2024/04/06 14:29:49;;;;;;;;;1.00;1.00;;;;;;;;5076368;28;45471;-79
2024/04/06 14:32:14;;;;;;;;;1.00;1.00;;;;;;;;5074937;28;46263;-79
2024/04/06 14:34:39;;;;;;;;;0.25;0.00;;;;;;;;5075133;28;45680;-79